createdAt,value
2023-02-13T00:03:52.854Z,102429.03
2023-02-13T00:08:55.035Z,102418.53
2023-02-13T00:13:58.525Z,102426.41
2023-02-13T00:19:00.616Z,102414.16
2023-02-13T00:24:02.691Z,102414.16
2023-02-13T00:29:04.628Z,102413.34
2023-02-13T00:34:06.573Z,102412.53
2023-02-13T00:39:12.374Z,102406.38
2023-02-13T00:44:14.323Z,102402.00
2023-02-13T00:49:16.337Z,102403.75
2023-02-13T00:54:18.360Z,102402.91
2023-02-13T00:59:20.356Z,102406.38
2023-02-13T01:04:22.362Z,102404.72
2023-02-13T01:09:24.370Z,102416.97
2023-02-13T01:14:26.425Z,102402.91
2023-02-13T01:19:28.417Z,102403.91
2023-02-13T01:24:33.547Z,102401.19
2023-02-13T01:29:35.592Z,102397.75
2023-02-13T01:34:37.606Z,102395.09
2023-02-13T01:39:39.765Z,102388.13
2023-02-13T01:44:55.316Z,102391.66
2023-02-13T01:50:22.764Z,102397.91
2023-02-13T01:55:26.521Z,102393.53
2023-02-13T02:05:45.267Z,102387.38
2023-02-13T02:10:47.607Z,102383.03
2023-02-13T02:15:50.844Z,102383.94
2023-02-13T02:21:32.547Z,102382.28
2023-02-13T02:26:40.431Z,102375.28
2023-02-13T02:32:04.167Z,102383.19
2023-02-13T02:37:12.134Z,102381.47
2023-02-13T02:42:39.354Z,102380.63
2023-02-13T02:48:21.739Z,102380.63
2023-02-13T02:53:44.576Z,102386.88
2023-02-13T02:59:17.130Z,102389.41
2023-02-13T03:04:57.411Z,102400.75
2023-02-13T03:10:25.244Z,102406.19
2023-02-13T03:15:27.985Z,102390.25
2023-02-13T03:20:54.497Z,102403.56
2023-02-13T03:26:33.504Z,102397.31
2023-02-13T03:32:01.729Z,102405.19
2023-02-13T03:37:27.336Z,102407.91
2023-02-13T03:42:38.930Z,102412.34
2023-02-13T03:47:43.428Z,102421.13
2023-02-13T03:52:48.247Z,102415.88
2023-02-13T03:58:12.813Z,102426.47
2023-02-13T04:03:23.198Z,102420.31
2023-02-13T04:08:25.290Z,102406.25
2023-02-13T04:13:38.661Z,102409.78
2023-02-13T04:18:41.413Z,102406.25
2023-02-13T04:23:43.423Z,102405.34
2023-02-13T04:28:45.851Z,102402.66
2023-02-13T04:33:47.853Z,102395.66
2023-02-13T04:38:50.685Z,102407.91
2023-02-13T04:43:52.829Z,102400.91
2023-02-13T04:48:54.916Z,102403.56
2023-02-13T04:53:56.945Z,102407.91
2023-02-13T04:58:58.974Z,102398.13
2023-02-13T05:04:01.083Z,102406.09
2023-02-13T05:09:03.101Z,102399.13
2023-02-13T05:14:05.105Z,102413.09
2023-02-13T05:19:07.251Z,102415.63
2023-02-13T05:24:09.275Z,102424.41
2023-02-13T05:29:20.397Z,102431.50
2023-02-13T05:34:24.037Z,102435.03
2023-02-13T05:39:26.093Z,102429.75
2023-02-13T05:44:28.159Z,102417.44
2023-02-13T05:49:30.265Z,102414.00
2023-02-13T05:54:32.440Z,102426.22
2023-02-13T05:59:34.529Z,102418.34
2023-02-13T06:04:36.632Z,102418.41
2023-02-13T06:09:38.768Z,102420.22
2023-02-13T06:14:40.811Z,102428.13
2023-02-13T06:19:42.789Z,102435.19
2023-02-13T06:24:44.946Z,102438.63
2023-02-13T06:29:47.051Z,102443.00
2023-02-13T06:34:49.113Z,102436.97
2023-02-13T06:39:51.125Z,102437.88
2023-02-13T06:44:53.302Z,102428.28
2023-02-13T06:49:55.318Z,102417.84
2023-02-13T06:54:57.392Z,102425.72
2023-02-13T07:00:00.718Z,102417.84
2023-02-13T07:05:04.261Z,102421.44
2023-02-13T07:10:43.845Z,102435.66
2023-02-13T07:15:45.971Z,102428.66
2023-02-13T07:20:48.040Z,102433.09
2023-02-13T07:25:50.082Z,102442.81
2023-02-13T07:30:52.286Z,102436.06
2023-02-13T07:35:58.490Z,102430.88
2023-02-13T07:41:02.091Z,102441.56
2023-02-13T07:46:04.565Z,102440.72
2023-02-13T07:51:06.699Z,102448.78
2023-02-13T07:56:10.190Z,102435.69
2023-02-13T08:01:15.328Z,102434.13
2023-02-13T08:06:20.272Z,102439.38
2023-02-13T08:11:52.231Z,102448.22
2023-02-13T08:16:55.548Z,102441.31
2023-02-13T08:21:57.803Z,102437.84
2023-02-13T08:26:59.906Z,102428.31
2023-02-13T08:32:02.024Z,102425.75
2023-02-13T08:37:04.545Z,102425.00
2023-02-13T08:42:06.962Z,102409.31
2023-02-13T08:47:10.121Z,102406.66
2023-02-13T08:52:12.201Z,102406.75
2023-02-13T08:57:14.239Z,102405.91
2023-02-13T09:02:16.381Z,102404.34
2023-02-13T09:07:18.432Z,102395.63
2023-02-13T09:12:20.620Z,102395.69
2023-02-13T09:17:22.645Z,102387.88
2023-02-13T09:22:24.806Z,102391.50
2023-02-13T09:27:26.873Z,102388.03
2023-02-13T09:32:29.527Z,102389.00
2023-02-13T09:37:31.577Z,102388.19
2023-02-13T09:42:37.339Z,102383.00
2023-02-13T09:47:44.480Z,102392.78
2023-02-13T09:52:48.100Z,102391.13
2023-02-13T09:58:08.427Z,102383.38
2023-02-13T10:03:39.467Z,102386.97
2023-02-13T10:08:53.578Z,102388.84
2023-02-13T10:14:01.566Z,102392.53
2023-02-13T10:19:14.567Z,102383.81
2023-02-13T10:24:24.039Z,102397.94
2023-02-13T10:30:05.135Z,102395.47
2023-02-13T10:35:27.012Z,102392.00
2023-02-13T10:40:35.504Z,102393.97
2023-02-13T10:45:48.677Z,102385.31
2023-02-13T10:51:27.827Z,102376.66
2023-02-13T10:56:43.858Z,102386.41
2023-02-13T11:02:04.180Z,102381.38
2023-02-13T11:07:15.025Z,102377.00
2023-02-13T11:12:33.048Z,102367.53
2023-02-13T11:17:38.362Z,102370.22
2023-02-13T11:22:45.571Z,102370.38
2023-02-13T11:27:49.941Z,102373.97
2023-02-13T11:33:23.966Z,102366.22
2023-02-13T11:38:26.125Z,102355.75
2023-02-13T11:43:37.262Z,102354.16
2023-02-13T11:48:39.325Z,102349.00
2023-02-13T11:53:41.723Z,102344.84
2023-02-13T11:58:43.995Z,102340.81
2023-02-13T12:04:06.089Z,102342.91
2023-02-13T12:09:16.181Z,102329.16
2023-02-13T12:14:24.021Z,102318.13
2023-02-13T12:19:43.406Z,102311.44
2023-02-13T12:25:05.168Z,102325.03
2023-02-13T12:30:13.081Z,102310.38
2023-02-13T12:35:42.578Z,102306.25
2023-02-13T12:40:58.638Z,102312.69
2023-02-13T12:46:10.847Z,102302.47
2023-02-13T12:51:37.669Z,102288.50
2023-02-13T12:57:22.120Z,102270.97
2023-02-13T13:02:50.253Z,102286.16
2023-02-13T13:08:14.091Z,102281.84
2023-02-13T13:13:34.347Z,102275.84
2023-02-13T13:18:54.664Z,102274.16
2023-02-13T13:24:32.121Z,102282.16
2023-02-13T13:29:45.190Z,102264.56
2023-02-13T13:34:47.949Z,102256.66
2023-02-13T13:40:28.725Z,102263.81
2023-02-13T13:45:46.327Z,102254.16
2023-02-13T13:50:49.501Z,102253.31
2023-02-13T13:55:56.851Z,102261.34
2023-02-13T14:01:30.129Z,102261.28
2023-02-13T14:06:59.603Z,102259.59
2023-02-13T14:12:24.522Z,102258.66
2023-02-13T14:17:44.847Z,102273.63
2023-02-13T14:22:47.048Z,102284.13
2023-02-13T14:28:01.780Z,102276.22
2023-02-13T14:33:06.362Z,102270.94
2023-02-13T14:38:24.154Z,102247.06
2023-02-13T14:43:31.005Z,102244.38
2023-02-13T14:48:37.928Z,102257.50
2023-02-13T14:53:55.609Z,102261.88
2023-02-13T14:59:26.960Z,102260.00
2023-02-13T15:04:56.064Z,102250.31
2023-02-13T15:10:06.277Z,102245.72
2023-02-13T15:15:32.827Z,102231.59
2023-02-13T15:20:38.230Z,102239.44
2023-02-13T15:25:41.093Z,102254.25
2023-02-13T15:31:02.918Z,102232.16
2023-02-13T15:36:07.325Z,102214.47
2023-02-13T15:41:31.822Z,102227.53
2023-02-13T15:46:37.060Z,102232.78
2023-02-13T15:51:39.515Z,102232.66
2023-02-13T15:56:45.992Z,102212.22
2023-02-13T16:01:50.877Z,102243.81
2023-02-13T16:06:56.993Z,102249.00
2023-02-13T16:12:05.879Z,102256.78
2023-02-13T16:17:17.284Z,102240.78
2023-02-13T16:22:19.575Z,102238.03
2023-02-13T16:27:28.652Z,102238.78
2023-02-13T16:32:34.185Z,102245.81
2023-02-13T16:37:38.414Z,102257.94
2023-02-13T16:42:40.772Z,102249.06
2023-02-13T16:47:43.746Z,102250.69
2023-02-13T16:52:46.258Z,102259.28
2023-02-13T16:57:48.812Z,102251.31
2023-02-13T17:02:51.732Z,102256.47
2023-02-13T17:08:01.669Z,102259.03
2023-02-13T17:13:17.326Z,102261.53
2023-02-13T17:18:20.063Z,102250.84
2023-02-13T17:23:25.855Z,102256.06
2023-02-13T17:28:31.088Z,102255.16
2023-02-13T17:33:35.783Z,102255.88
2023-02-13T17:38:39.069Z,102254.06
2023-02-13T17:43:41.887Z,102257.47
2023-02-13T17:48:44.484Z,102254.69
2023-02-13T17:53:48.145Z,102248.47
2023-02-13T17:58:52.206Z,102250.13
2023-02-13T18:03:55.444Z,102263.16
2023-02-13T18:08:59.021Z,102276.28
2023-02-13T18:14:02.986Z,102281.47
2023-02-13T18:19:07.426Z,102276.91
2023-02-13T18:24:11.795Z,102283.88
2023-02-13T18:29:17.725Z,102305.78
2023-02-13T18:34:26.884Z,102317.13
2023-02-13T18:39:34.743Z,102324.91
2023-02-13T18:44:38.465Z,102326.50
2023-02-13T18:49:41.536Z,102326.50
2023-02-13T18:54:44.704Z,102322.06
2023-02-13T18:59:47.703Z,102321.09
2023-02-13T19:04:50.949Z,102312.22
2023-02-13T19:09:54.644Z,102313.94
2023-02-13T19:15:00.230Z,102320.03
2023-02-13T19:20:03.296Z,102326.06
2023-02-13T19:25:07.434Z,102327.72
2023-02-13T19:30:16.244Z,102318.78
2023-02-13T19:35:20.525Z,102325.78
2023-02-13T19:40:24.364Z,102327.50
2023-02-13T19:45:28.915Z,102340.59
2023-02-13T19:50:34.856Z,102345.81
2023-02-13T19:55:38.720Z,102335.88
2023-02-13T20:00:42.283Z,102349.19
2023-02-13T20:05:48.192Z,102341.22
2023-02-13T20:10:52.789Z,102346.34
2023-02-13T20:15:56.240Z,102349.81
2023-02-13T20:21:00.593Z,102360.34
2023-02-13T20:26:15.919Z,102357.63
2023-02-13T20:31:25.799Z,102359.38
2023-02-13T20:36:32.303Z,102365.47
2023-02-13T20:41:38.292Z,102353.13
2023-02-13T20:46:41.607Z,102355.59
2023-02-13T20:51:45.040Z,102361.78
2023-02-13T20:56:48.761Z,102358.25
2023-02-13T21:01:54.342Z,102353.81
2023-02-13T21:06:59.306Z,102339.66
2023-02-13T21:12:02.788Z,102341.31
2023-02-13T21:17:05.662Z,102344.78
2023-02-13T21:22:14.666Z,102348.25
2023-02-13T21:27:17.432Z,102357.88
2023-02-13T21:32:20.295Z,102351.63
2023-02-13T21:37:22.983Z,102352.53
2023-02-13T21:42:26.860Z,102346.28
2023-02-13T21:47:29.220Z,102354.94
2023-02-13T21:52:31.548Z,102339.91
2023-02-13T21:57:35.468Z,102333.66
2023-02-13T22:02:40.803Z,102343.28
2023-02-13T22:08:01.699Z,102349.31
2023-02-13T22:13:04.089Z,102349.91
2023-02-13T22:18:06.295Z,102354.19
2023-02-13T22:23:08.344Z,102346.09
2023-02-13T22:28:10.338Z,102349.38
2023-02-13T22:33:12.368Z,102351.88
2023-02-13T22:38:14.481Z,102352.66
2023-02-13T22:43:16.529Z,102356.94
2023-02-13T22:48:18.750Z,102361.97
2023-02-13T22:53:20.829Z,102356.72
2023-02-13T22:58:22.922Z,102367.31
2023-02-13T23:03:25.419Z,102364.59
2023-02-13T23:08:27.438Z,102368.88
2023-02-13T23:13:29.484Z,102356.47
2023-02-13T23:18:31.579Z,102374.88
2023-02-13T23:23:36.158Z,102359.84
2023-02-13T23:28:38.325Z,102352.78
2023-02-13T23:33:40.386Z,102361.59
2023-02-13T23:38:42.472Z,102357.97
2023-02-13T23:43:44.484Z,102352.66
2023-02-13T23:48:46.962Z,102364.06
2023-02-13T23:53:49.584Z,102360.47
2023-02-13T23:58:51.710Z,102369.16
